sensor_id;sensor_type;location;lat;lon;timestamp;temperature;humidity
78904;DHT22;68291;49.602;8.722;2023-06-22T00:00:10;24.10;99.90
78904;DHT22;68291;49.602;8.722;2023-06-22T00:02:45;24.10;99.90
78904;DHT22;68291;49.602;8.722;2023-06-22T00:05:20;24.00;99.90
78904;DHT22;68291;49.602;8.722;2023-06-22T00:08:20;23.90;99.90
78904;DHT22;68291;49.602;8.722;2023-06-22T00:10:52;23.90;99.90
78904;DHT22;68291;49.602;8.722;2023-06-22T00:13:44;23.80;99.90
78904;DHT22;68291;49.602;8.722;2023-06-22T00:16:17;23.70;99.90
78904;DHT22;68291;49.602;8.722;2023-06-22T00:19:13;23.70;99.90
78904;DHT22;68291;49.602;8.722;2023-06-22T00:22:10;23.60;99.90
78904;DHT22;68291;49.602;8.722;2023-06-22T00:25:31;23.60;99.90
78904;DHT22;68291;49.602;8.722;2023-06-22T00:28:03;23.60;99.90
78904;DHT22;68291;49.602;8.722;2023-06-22T00:30:53;23.60;99.90
78904;DHT22;68291;49.602;8.722;2023-06-22T00:33:35;23.50;99.90
78904;DHT22;68291;49.602;8.722;2023-06-22T00:36:06;23.50;99.90
78904;DHT22;68291;49.602;8.722;2023-06-22T00:38:45;23.50;99.90
78904;DHT22;68291;49.602;8.722;2023-06-22T00:41:45;23.50;99.90
78904;DHT22;68291;49.602;8.722;2023-06-22T00:44:22;23.50;99.90
78904;DHT22;68291;49.602;8.722;2023-06-22T00:47:00;23.50;99.90
78904;DHT22;68291;49.602;8.722;2023-06-22T00:49:43;23.50;99.90
78904;DHT22;68291;49.602;8.722;2023-06-22T00:52:15;23.40;99.90
78904;DHT22;68291;49.602;8.722;2023-06-22T00:55:02;23.40;99.90
78904;DHT22;68291;49.602;8.722;2023-06-22T00:57:41;23.50;99.90
78904;DHT22;68291;49.602;8.722;2023-06-22T01:00:23;23.50;99.90
78904;DHT22;68291;49.602;8.722;2023-06-22T01:03:07;23.60;99.90
78904;DHT22;68291;49.602;8.722;2023-06-22T01:06:05;23.70;99.90
78904;DHT22;68291;49.602;8.722;2023-06-22T01:09:08;23.90;99.90
78904;DHT22;68291;49.602;8.722;2023-06-22T01:12:04;24.00;99.90
78904;DHT22;68291;49.602;8.722;2023-06-22T01:14:57;24.10;99.90
78904;DHT22;68291;49.602;8.722;2023-06-22T01:17:35;24.20;99.90
78904;DHT22;68291;49.602;8.722;2023-06-22T01:20:31;24.20;99.90
78904;DHT22;68291;49.602;8.722;2023-06-22T01:23:29;24.20;99.90
78904;DHT22;68291;49.602;8.722;2023-06-22T01:26:17;24.20;99.90
78904;DHT22;68291;49.602;8.722;2023-06-22T01:29:00;24.10;99.90
78904;DHT22;68291;49.602;8.722;2023-06-22T01:31:43;24.00;99.90
78904;DHT22;68291;49.602;8.722;2023-06-22T01:34:31;24.00;99.90
78904;DHT22;68291;49.602;8.722;2023-06-22T01:37:28;23.80;99.90
78904;DHT22;68291;49.602;8.722;2023-06-22T01:40:10;23.80;99.90
78904;DHT22;68291;49.602;8.722;2023-06-22T01:42:52;23.80;99.90
78904;DHT22;68291;49.602;8.722;2023-06-22T01:45:51;23.70;99.90
78904;DHT22;68291;49.602;8.722;2023-06-22T01:48:28;23.60;99.90
78904;DHT22;68291;49.602;8.722;2023-06-22T01:51:13;23.60;99.90
78904;DHT22;68291;49.602;8.722;2023-06-22T01:53:50;23.50;99.90
78904;DHT22;68291;49.602;8.722;2023-06-22T01:56:40;23.50;99.90
78904;DHT22;68291;49.602;8.722;2023-06-22T01:59:23;23.40;99.90
78904;DHT22;68291;49.602;8.722;2023-06-22T02:02:35;23.40;99.90
78904;DHT22;68291;49.602;8.722;2023-06-22T02:05:24;23.30;99.90
78904;DHT22;68291;49.602;8.722;2023-06-22T02:08:09;23.20;99.90
78904;DHT22;68291;49.602;8.722;2023-06-22T02:10:57;23.20;99.90
78904;DHT22;68291;49.602;8.722;2023-06-22T02:13:33;23.10;99.90
78904;DHT22;68291;49.602;8.722;2023-06-22T02:16:11;23.10;99.90
78904;DHT22;68291;49.602;8.722;2023-06-22T02:18:57;23.00;99.90
78904;DHT22;68291;49.602;8.722;2023-06-22T02:21:39;23.00;99.90
78904;DHT22;68291;49.602;8.722;2023-06-22T02:24:13;23.00;99.90
78904;DHT22;68291;49.602;8.722;2023-06-22T02:27:01;22.90;99.90
78904;DHT22;68291;49.602;8.722;2023-06-22T02:29:59;22.90;99.90
78904;DHT22;68291;49.602;8.722;2023-06-22T02:32:44;22.90;99.90
78904;DHT22;68291;49.602;8.722;2023-06-22T02:35:43;22.80;99.90
78904;DHT22;68291;49.602;8.722;2023-06-22T02:38:38;22.80;99.90
78904;DHT22;68291;49.602;8.722;2023-06-22T02:41:28;22.80;99.90
78904;DHT22;68291;49.602;8.722;2023-06-22T02:44:27;22.80;99.90
78904;DHT22;68291;49.602;8.722;2023-06-22T02:47:03;22.80;99.90
78904;DHT22;68291;49.602;8.722;2023-06-22T02:49:53;22.70;99.90
78904;DHT22;68291;49.602;8.722;2023-06-22T02:52:29;22.70;99.90
78904;DHT22;68291;49.602;8.722;2023-06-22T02:55:00;22.60;99.90
78904;DHT22;68291;49.602;8.722;2023-06-22T02:57:39;22.60;99.90
78904;DHT22;68291;49.602;8.722;2023-06-22T03:00:13;22.60;99.90
78904;DHT22;68291;49.602;8.722;2023-06-22T03:02:49;22.50;99.90
78904;DHT22;68291;49.602;8.722;2023-06-22T03:05:25;22.50;99.90
78904;DHT22;68291;49.602;8.722;2023-06-22T03:08:11;22.40;99.90
78904;DHT22;68291;49.602;8.722;2023-06-22T03:10:46;22.40;99.90
78904;DHT22;68291;49.602;8.722;2023-06-22T03:13:33;22.40;99.90
78904;DHT22;68291;49.602;8.722;2023-06-22T03:16:09;22.40;99.90
78904;DHT22;68291;49.602;8.722;2023-06-22T03:18:56;22.40;99.90
78904;DHT22;68291;49.602;8.722;2023-06-22T03:21:32;22.30;99.90
78904;DHT22;68291;49.602;8.722;2023-06-22T03:24:30;22.30;99.90
78904;DHT22;68291;49.602;8.722;2023-06-22T03:27:31;22.30;99.90
78904;DHT22;68291;49.602;8.722;2023-06-22T03:30:02;22.20;99.90
78904;DHT22;68291;49.602;8.722;2023-06-22T03:32:39;22.20;99.90
78904;DHT22;68291;49.602;8.722;2023-06-22T03:35:19;22.20;99.90
78904;DHT22;68291;49.602;8.722;2023-06-22T03:38:04;22.10;99.90
78904;DHT22;68291;49.602;8.722;2023-06-22T03:40:48;22.10;99.90
78904;DHT22;68291;49.602;8.722;2023-06-22T03:43:31;22.10;99.90
78904;DHT22;68291;49.602;8.722;2023-06-22T03:46:10;22.10;99.90
78904;DHT22;68291;49.602;8.722;2023-06-22T03:49:04;22.00;99.90
78904;DHT22;68291;49.602;8.722;2023-06-22T03:51:38;22.00;99.90
78904;DHT22;68291;49.602;8.722;2023-06-22T03:54:19;22.00;99.90
78904;DHT22;68291;49.602;8.722;2023-06-22T03:57:06;22.00;99.90
78904;DHT22;68291;49.602;8.722;2023-06-22T04:00:04;22.00;99.90
78904;DHT22;68291;49.602;8.722;2023-06-22T04:03:14;21.90;99.90
78904;DHT22;68291;49.602;8.722;2023-06-22T04:06:08;21.90;99.90
78904;DHT22;68291;49.602;8.722;2023-06-22T04:08:39;21.90;99.90
78904;DHT22;68291;49.602;8.722;2023-06-22T04:11:11;21.90;99.90
78904;DHT22;68291;49.602;8.722;2023-06-22T04:13:54;21.90;99.90
78904;DHT22;68291;49.602;8.722;2023-06-22T04:16:35;21.90;99.90
78904;DHT22;68291;49.602;8.722;2023-06-22T04:19:08;21.90;99.90
78904;DHT22;68291;49.602;8.722;2023-06-22T04:21:49;21.90;99.90
78904;DHT22;68291;49.602;8.722;2023-06-22T04:24:38;21.90;99.90
78904;DHT22;68291;49.602;8.722;2023-06-22T04:27:24;21.90;99.90
78904;DHT22;68291;49.602;8.722;2023-06-22T04:30:09;21.90;99.90
78904;DHT22;68291;49.602;8.722;2023-06-22T04:33:01;22.00;99.90
78904;DHT22;68291;49.602;8.722;2023-06-22T04:35:49;22.00;99.90
78904;DHT22;68291;49.602;8.722;2023-06-22T04:38:37;22.00;99.90
78904;DHT22;68291;49.602;8.722;2023-06-22T04:41:33;22.00;99.90
78904;DHT22;68291;49.602;8.722;2023-06-22T04:44:26;22.00;99.90
78904;DHT22;68291;49.602;8.722;2023-06-22T04:47:08;22.00;99.90
78904;DHT22;68291;49.602;8.722;2023-06-22T04:49:57;22.10;99.90
78904;DHT22;68291;49.602;8.722;2023-06-22T04:52:40;22.10;99.90
78904;DHT22;68291;49.602;8.722;2023-06-22T04:55:16;22.20;99.90
78904;DHT22;68291;49.602;8.722;2023-06-22T04:58:00;22.20;99.90
78904;DHT22;68291;49.602;8.722;2023-06-22T05:00:58;22.20;99.90
78904;DHT22;68291;49.602;8.722;2023-06-22T05:03:43;22.20;99.90
78904;DHT22;68291;49.602;8.722;2023-06-22T05:06:28;22.30;99.90
78904;DHT22;68291;49.602;8.722;2023-06-22T05:09:16;22.30;99.90
78904;DHT22;68291;49.602;8.722;2023-06-22T05:12:25;22.30;99.90
78904;DHT22;68291;49.602;8.722;2023-06-22T05:15:04;22.40;99.90
78904;DHT22;68291;49.602;8.722;2023-06-22T05:17:39;22.40;99.90
78904;DHT22;68291;49.602;8.722;2023-06-22T05:20:23;22.50;99.90
78904;DHT22;68291;49.602;8.722;2023-06-22T05:23:02;22.60;99.90
78904;DHT22;68291;49.602;8.722;2023-06-22T05:25:40;22.60;99.90
78904;DHT22;68291;49.602;8.722;2023-06-22T05:28:36;22.70;99.90
78904;DHT22;68291;49.602;8.722;2023-06-22T05:31:26;22.70;99.90
78904;DHT22;68291;49.602;8.722;2023-06-22T05:34:10;22.80;99.90
78904;DHT22;68291;49.602;8.722;2023-06-22T05:36:55;22.90;99.90
78904;DHT22;68291;49.602;8.722;2023-06-22T05:39:50;23.00;99.90
78904;DHT22;68291;49.602;8.722;2023-06-22T05:42:39;23.10;99.90
78904;DHT22;68291;49.602;8.722;2023-06-22T05:45:15;23.20;99.90
78904;DHT22;68291;49.602;8.722;2023-06-22T05:47:45;23.30;99.90
78904;DHT22;68291;49.602;8.722;2023-06-22T05:50:32;23.40;99.90
78904;DHT22;68291;49.602;8.722;2023-06-22T05:53:12;23.50;99.90
78904;DHT22;68291;49.602;8.722;2023-06-22T05:55:52;23.60;99.90
78904;DHT22;68291;49.602;8.722;2023-06-22T05:58:24;23.70;99.90
78904;DHT22;68291;49.602;8.722;2023-06-22T06:01:10;23.80;99.90
78904;DHT22;68291;49.602;8.722;2023-06-22T06:03:50;23.90;99.90
78904;DHT22;68291;49.602;8.722;2023-06-22T06:06:29;24.00;99.90
78904;DHT22;68291;49.602;8.722;2023-06-22T06:09:20;24.10;99.90
78904;DHT22;68291;49.602;8.722;2023-06-22T06:12:10;24.20;99.90
78904;DHT22;68291;49.602;8.722;2023-06-22T06:14:44;24.30;99.90
78904;DHT22;68291;49.602;8.722;2023-06-22T06:17:26;24.40;99.90
78904;DHT22;68291;49.602;8.722;2023-06-22T06:20:08;24.50;99.90
78904;DHT22;68291;49.602;8.722;2023-06-22T06:22:46;24.60;99.90
78904;DHT22;68291;49.602;8.722;2023-06-22T06:25:37;24.70;99.90
78904;DHT22;68291;49.602;8.722;2023-06-22T06:28:13;24.80;99.90
78904;DHT22;68291;49.602;8.722;2023-06-22T06:31:00;24.90;99.90
78904;DHT22;68291;49.602;8.722;2023-06-22T06:33:43;25.00;99.90
78904;DHT22;68291;49.602;8.722;2023-06-22T06:36:28;25.10;99.90
78904;DHT22;68291;49.602;8.722;2023-06-22T06:39:18;25.20;99.90
78904;DHT22;68291;49.602;8.722;2023-06-22T06:42:23;25.40;99.90
78904;DHT22;68291;49.602;8.722;2023-06-22T06:44:58;25.50;99.90
78904;DHT22;68291;49.602;8.722;2023-06-22T06:47:29;25.60;99.90
78904;DHT22;68291;49.602;8.722;2023-06-22T06:50:08;25.70;99.90
78904;DHT22;68291;49.602;8.722;2023-06-22T06:52:40;25.80;99.90
78904;DHT22;68291;49.602;8.722;2023-06-22T06:55:24;25.90;99.90
78904;DHT22;68291;49.602;8.722;2023-06-22T06:58:06;26.00;99.90
78904;DHT22;68291;49.602;8.722;2023-06-22T07:00:55;26.20;99.90
78904;DHT22;68291;49.602;8.722;2023-06-22T07:03:49;26.20;99.90
78904;DHT22;68291;49.602;8.722;2023-06-22T07:06:40;26.30;99.90
78904;DHT22;68291;49.602;8.722;2023-06-22T07:09:25;26.50;99.90
78904;DHT22;68291;49.602;8.722;2023-06-22T07:11:57;26.60;99.90
78904;DHT22;68291;49.602;8.722;2023-06-22T07:14:49;26.70;99.90
78904;DHT22;68291;49.602;8.722;2023-06-22T07:17:25;26.80;99.90
78904;DHT22;68291;49.602;8.722;2023-06-22T07:20:09;26.90;99.90
78904;DHT22;68291;49.602;8.722;2023-06-22T07:22:47;27.00;99.90
78904;DHT22;68291;49.602;8.722;2023-06-22T07:25:19;27.10;99.90
78904;DHT22;68291;49.602;8.722;2023-06-22T07:28:09;27.20;99.90
78904;DHT22;68291;49.602;8.722;2023-06-22T07:30:59;27.30;99.90
78904;DHT22;68291;49.602;8.722;2023-06-22T07:33:45;27.40;99.90
78904;DHT22;68291;49.602;8.722;2023-06-22T07:36:42;27.40;99.90
78904;DHT22;68291;49.602;8.722;2023-06-22T07:39:27;27.50;99.90
78904;DHT22;68291;49.602;8.722;2023-06-22T07:42:25;27.60;99.90
78904;DHT22;68291;49.602;8.722;2023-06-22T07:45:17;27.60;99.90
78904;DHT22;68291;49.602;8.722;2023-06-22T07:48:07;27.80;99.90
78904;DHT22;68291;49.602;8.722;2023-06-22T07:50:49;27.90;99.90
78904;DHT22;68291;49.602;8.722;2023-06-22T07:53:44;28.00;99.90
78904;DHT22;68291;49.602;8.722;2023-06-22T07:56:23;28.00;99.90
78904;DHT22;68291;49.602;8.722;2023-06-22T07:59:09;28.10;99.90
78904;DHT22;68291;49.602;8.722;2023-06-22T08:01:58;28.20;99.90
78904;DHT22;68291;49.602;8.722;2023-06-22T08:05:02;28.30;99.90
78904;DHT22;68291;49.602;8.722;2023-06-22T08:07:50;28.40;99.90
78904;DHT22;68291;49.602;8.722;2023-06-22T08:10:29;28.40;99.90
78904;DHT22;68291;49.602;8.722;2023-06-22T08:13:13;28.50;99.90
78904;DHT22;68291;49.602;8.722;2023-06-22T08:15:52;28.60;99.90
78904;DHT22;68291;49.602;8.722;2023-06-22T08:18:26;28.70;99.90
78904;DHT22;68291;49.602;8.722;2023-06-22T08:21:19;28.70;99.90
78904;DHT22;68291;49.602;8.722;2023-06-22T08:24:08;28.80;99.90
78904;DHT22;68291;49.602;8.722;2023-06-22T08:26:51;28.90;99.90
78904;DHT22;68291;49.602;8.722;2023-06-22T08:29:24;28.90;99.90
78904;DHT22;68291;49.602;8.722;2023-06-22T08:31:57;29.00;99.90
78904;DHT22;68291;49.602;8.722;2023-06-22T08:34:45;29.10;99.90
78904;DHT22;68291;49.602;8.722;2023-06-22T08:37:31;29.10;99.90
78904;DHT22;68291;49.602;8.722;2023-06-22T08:40:24;29.30;99.90
78904;DHT22;68291;49.602;8.722;2023-06-22T08:43:00;29.30;99.90
78904;DHT22;68291;49.602;8.722;2023-06-22T08:45:46;29.40;99.90
78904;DHT22;68291;49.602;8.722;2023-06-22T08:48:22;29.50;99.90
78904;DHT22;68291;49.602;8.722;2023-06-22T08:51:11;29.50;99.90
78904;DHT22;68291;49.602;8.722;2023-06-22T08:53:58;29.60;99.90
78904;DHT22;68291;49.602;8.722;2023-06-22T08:56:49;29.70;99.90
78904;DHT22;68291;49.602;8.722;2023-06-22T08:59:31;29.80;99.90
78904;DHT22;68291;49.602;8.722;2023-06-22T09:02:02;29.90;99.90
78904;DHT22;68291;49.602;8.722;2023-06-22T09:04:43;30.00;99.90
78904;DHT22;68291;49.602;8.722;2023-06-22T09:07:17;30.10;99.90
78904;DHT22;68291;49.602;8.722;2023-06-22T09:10:25;30.20;99.90
78904;DHT22;68291;49.602;8.722;2023-06-22T09:13:10;30.30;99.90
78904;DHT22;68291;49.602;8.722;2023-06-22T09:15:52;30.50;99.90
78904;DHT22;68291;49.602;8.722;2023-06-22T09:18:38;30.60;99.90
78904;DHT22;68291;49.602;8.722;2023-06-22T09:21:33;30.80;99.90
78904;DHT22;68291;49.602;8.722;2023-06-22T09:24:29;30.90;99.90
78904;DHT22;68291;49.602;8.722;2023-06-22T09:27:27;31.10;99.90
78904;DHT22;68291;49.602;8.722;2023-06-22T09:30:15;31.20;99.90
78904;DHT22;68291;49.602;8.722;2023-06-22T09:32:55;31.30;99.90
78904;DHT22;68291;49.602;8.722;2023-06-22T09:35:36;31.40;99.90
78904;DHT22;68291;49.602;8.722;2023-06-22T09:38:12;31.40;99.90
78904;DHT22;68291;49.602;8.722;2023-06-22T09:40:58;31.50;99.90
78904;DHT22;68291;49.602;8.722;2023-06-22T09:43:33;31.60;99.90
78904;DHT22;68291;49.602;8.722;2023-06-22T09:46:23;31.60;99.90
78904;DHT22;68291;49.602;8.722;2023-06-22T09:49:09;31.80;99.90
78904;DHT22;68291;49.602;8.722;2023-06-22T09:51:49;31.90;99.90
78904;DHT22;68291;49.602;8.722;2023-06-22T09:54:22;32.00;99.90
78904;DHT22;68291;49.602;8.722;2023-06-22T09:57:08;32.10;99.90
78904;DHT22;68291;49.602;8.722;2023-06-22T10:03:10;32.30;99.90
78904;DHT22;68291;49.602;8.722;2023-06-22T10:05:58;32.50;99.90
78904;DHT22;68291;49.602;8.722;2023-06-22T10:08:44;32.60;99.90
78904;DHT22;68291;49.602;8.722;2023-06-22T10:11:16;32.70;99.90
78904;DHT22;68291;49.602;8.722;2023-06-22T10:13:58;32.70;99.90
78904;DHT22;68291;49.602;8.722;2023-06-22T10:16:40;32.70;99.90
78904;DHT22;68291;49.602;8.722;2023-06-22T10:19:21;32.80;99.90
78904;DHT22;68291;49.602;8.722;2023-06-22T10:22:03;32.80;99.90
78904;DHT22;68291;49.602;8.722;2023-06-22T10:24:36;32.90;99.90
78904;DHT22;68291;49.602;8.722;2023-06-22T10:27:16;32.90;99.90
78904;DHT22;68291;49.602;8.722;2023-06-22T10:29:59;33.00;99.90
78904;DHT22;68291;49.602;8.722;2023-06-22T10:32:52;33.10;99.90
78904;DHT22;68291;49.602;8.722;2023-06-22T10:35:46;33.20;99.90
78904;DHT22;68291;49.602;8.722;2023-06-22T10:38:37;33.20;99.90
78904;DHT22;68291;49.602;8.722;2023-06-22T10:41:23;33.30;99.90
78904;DHT22;68291;49.602;8.722;2023-06-22T10:44:03;33.40;99.90
78904;DHT22;68291;49.602;8.722;2023-06-22T10:46:42;33.40;99.90
78904;DHT22;68291;49.602;8.722;2023-06-22T10:49:19;33.50;99.90
78904;DHT22;68291;49.602;8.722;2023-06-22T10:52:08;33.50;99.90
78904;DHT22;68291;49.602;8.722;2023-06-22T10:55:05;33.50;99.90
78904;DHT22;68291;49.602;8.722;2023-06-22T10:57:48;33.60;99.90
78904;DHT22;68291;49.602;8.722;2023-06-22T11:00:45;33.60;99.90
78904;DHT22;68291;49.602;8.722;2023-06-22T11:03:32;33.70;99.90
78904;DHT22;68291;49.602;8.722;2023-06-22T11:06:31;33.80;99.90
78904;DHT22;68291;49.602;8.722;2023-06-22T11:09:11;33.90;99.90
78904;DHT22;68291;49.602;8.722;2023-06-22T11:11:51;34.10;99.90
78904;DHT22;68291;49.602;8.722;2023-06-22T11:14:23;34.10;99.90
78904;DHT22;68291;49.602;8.722;2023-06-22T11:17:04;34.20;99.90
78904;DHT22;68291;49.602;8.722;2023-06-22T11:19:44;34.30;99.90
78904;DHT22;68291;49.602;8.722;2023-06-22T11:22:19;34.40;99.90
78904;DHT22;68291;49.602;8.722;2023-06-22T11:24:53;34.40;99.90
78904;DHT22;68291;49.602;8.722;2023-06-22T11:27:24;34.50;99.90
78904;DHT22;68291;49.602;8.722;2023-06-22T11:30:10;34.60;99.90
78904;DHT22;68291;49.602;8.722;2023-06-22T11:32:52;34.70;99.90
78904;DHT22;68291;49.602;8.722;2023-06-22T11:35:31;34.80;99.90
78904;DHT22;68291;49.602;8.722;2023-06-22T11:41:44;34.90;98.40
78904;DHT22;68291;49.602;8.722;2023-06-22T11:44:41;34.90;99.90
78904;DHT22;68291;49.602;8.722;2023-06-22T11:47:24;34.90;99.90
78904;DHT22;68291;49.602;8.722;2023-06-22T11:50:04;34.90;99.90
78904;DHT22;68291;49.602;8.722;2023-06-22T11:52:53;34.90;99.90
78904;DHT22;68291;49.602;8.722;2023-06-22T11:55:40;34.90;99.80
78904;DHT22;68291;49.602;8.722;2023-06-22T11:58:32;35.00;99.30
78904;DHT22;68291;49.602;8.722;2023-06-22T12:01:12;35.00;99.70
78904;DHT22;68291;49.602;8.722;2023-06-22T12:03:48;35.10;99.50
78904;DHT22;68291;49.602;8.722;2023-06-22T12:06:46;35.10;99.60
78904;DHT22;68291;49.602;8.722;2023-06-22T12:09:36;35.20;99.70
78904;DHT22;68291;49.602;8.722;2023-06-22T12:12:37;35.20;99.80
78904;DHT22;68291;49.602;8.722;2023-06-22T12:15:18;35.30;99.00
78904;DHT22;68291;49.602;8.722;2023-06-22T12:17:56;35.30;99.50
78904;DHT22;68291;49.602;8.722;2023-06-22T12:20:36;35.40;98.40
78904;DHT22;68291;49.602;8.722;2023-06-22T12:23:17;35.40;98.00
78904;DHT22;68291;49.602;8.722;2023-06-22T12:25:50;35.40;97.90
78904;DHT22;68291;49.602;8.722;2023-06-22T12:28:51;35.30;97.90
78904;DHT22;68291;49.602;8.722;2023-06-22T12:31:50;35.30;96.60
78904;DHT22;68291;49.602;8.722;2023-06-22T12:34:36;35.30;98.00
78904;DHT22;68291;49.602;8.722;2023-06-22T12:37:08;35.30;97.00
78904;DHT22;68291;49.602;8.722;2023-06-22T12:39:48;35.40;96.60
78904;DHT22;68291;49.602;8.722;2023-06-22T12:42:21;35.40;96.50
78904;DHT22;68291;49.602;8.722;2023-06-22T12:45:25;35.40;96.80
78904;DHT22;68291;49.602;8.722;2023-06-22T12:48:01;35.50;96.40
78904;DHT22;68291;49.602;8.722;2023-06-22T12:50:40;35.50;96.60
78904;DHT22;68291;49.602;8.722;2023-06-22T12:53:35;35.70;97.00
78904;DHT22;68291;49.602;8.722;2023-06-22T12:56:31;35.80;97.30
78904;DHT22;68291;49.602;8.722;2023-06-22T12:59:04;36.10;96.50
78904;DHT22;68291;49.602;8.722;2023-06-22T13:02:04;36.30;95.90
78904;DHT22;68291;49.602;8.722;2023-06-22T13:04:56;36.50;92.50
78904;DHT22;68291;49.602;8.722;2023-06-22T13:07:52;36.70;94.30
78904;DHT22;68291;49.602;8.722;2023-06-22T13:10:29;36.70;93.20
78904;DHT22;68291;49.602;8.722;2023-06-22T13:13:00;36.60;93.20
78904;DHT22;68291;49.602;8.722;2023-06-22T13:15:32;36.50;92.50
78904;DHT22;68291;49.602;8.722;2023-06-22T13:18:23;36.40;92.60
78904;DHT22;68291;49.602;8.722;2023-06-22T13:21:00;36.20;90.70
78904;DHT22;68291;49.602;8.722;2023-06-22T13:23:35;36.10;91.50
78904;DHT22;68291;49.602;8.722;2023-06-22T13:26:12;36.00;92.40
78904;DHT22;68291;49.602;8.722;2023-06-22T13:28:52;35.90;93.00
78904;DHT22;68291;49.602;8.722;2023-06-22T13:31:33;36.00;92.90
78904;DHT22;68291;49.602;8.722;2023-06-22T13:34:56;36.10;93.50
78904;DHT22;68291;49.602;8.722;2023-06-22T13:37:53;36.40;93.00
78904;DHT22;68291;49.602;8.722;2023-06-22T13:40:49;36.90;92.70
78904;DHT22;68291;49.602;8.722;2023-06-22T13:43:24;37.40;91.20
78904;DHT22;68291;49.602;8.722;2023-06-22T13:46:17;37.70;89.50
78904;DHT22;68291;49.602;8.722;2023-06-22T13:48:59;38.10;88.60
78904;DHT22;68291;49.602;8.722;2023-06-22T13:51:54;38.30;87.20
78904;DHT22;68291;49.602;8.722;2023-06-22T13:54:30;38.50;82.20
78904;DHT22;68291;49.602;8.722;2023-06-22T13:57:03;38.70;84.70
78904;DHT22;68291;49.602;8.722;2023-06-22T13:59:48;38.70;82.90
78904;DHT22;68291;49.602;8.722;2023-06-22T14:02:40;38.70;83.40
78904;DHT22;68291;49.602;8.722;2023-06-22T14:05:28;38.60;82.50
78904;DHT22;68291;49.602;8.722;2023-06-22T14:08:15;38.50;83.40
78904;DHT22;68291;49.602;8.722;2023-06-22T14:11:13;38.40;78.80
78904;DHT22;68291;49.602;8.722;2023-06-22T14:14:03;38.30;81.80
78904;DHT22;68291;49.602;8.722;2023-06-22T14:16:58;38.20;80.70
78904;DHT22;68291;49.602;8.722;2023-06-22T14:19:54;38.00;80.50
78904;DHT22;68291;49.602;8.722;2023-06-22T14:22:27;37.80;80.40
78904;DHT22;68291;49.602;8.722;2023-06-22T14:25:16;37.50;80.20
78904;DHT22;68291;49.602;8.722;2023-06-22T14:27:51;37.20;78.80
78904;DHT22;68291;49.602;8.722;2023-06-22T14:30:34;36.80;80.70
78904;DHT22;68291;49.602;8.722;2023-06-22T14:33:17;36.60;80.90
78904;DHT22;68291;49.602;8.722;2023-06-22T14:36:05;36.30;81.20
78904;DHT22;68291;49.602;8.722;2023-06-22T14:38:42;36.00;82.00
78904;DHT22;68291;49.602;8.722;2023-06-22T14:41:24;35.70;82.80
78904;DHT22;68291;49.602;8.722;2023-06-22T14:44:04;35.40;82.40
78904;DHT22;68291;49.602;8.722;2023-06-22T14:46:59;35.10;83.50
78904;DHT22;68291;49.602;8.722;2023-06-22T14:49:55;34.90;84.20
78904;DHT22;68291;49.602;8.722;2023-06-22T14:52:36;34.60;84.70
78904;DHT22;68291;49.602;8.722;2023-06-22T14:55:09;34.50;84.60
78904;DHT22;68291;49.602;8.722;2023-06-22T14:57:46;34.40;85.60
78904;DHT22;68291;49.602;8.722;2023-06-22T15:00:29;34.40;86.60
78904;DHT22;68291;49.602;8.722;2023-06-22T15:03:15;34.30;86.90
78904;DHT22;68291;49.602;8.722;2023-06-22T15:05:50;34.30;86.70
78904;DHT22;68291;49.602;8.722;2023-06-22T15:08:25;34.30;87.40
78904;DHT22;68291;49.602;8.722;2023-06-22T15:11:09;34.20;86.90
78904;DHT22;68291;49.602;8.722;2023-06-22T15:13:52;34.20;87.20
78904;DHT22;68291;49.602;8.722;2023-06-22T15:16:45;34.10;87.20
78904;DHT22;68291;49.602;8.722;2023-06-22T15:19:16;34.00;87.00
78904;DHT22;68291;49.602;8.722;2023-06-22T15:22:07;34.00;88.30
78904;DHT22;68291;49.602;8.722;2023-06-22T15:24:46;33.90;89.20
78904;DHT22;68291;49.602;8.722;2023-06-22T15:27:26;33.90;90.60
78904;DHT22;68291;49.602;8.722;2023-06-22T15:30:04;33.80;90.20
78904;DHT22;68291;49.602;8.722;2023-06-22T15:32:36;33.80;90.50
78904;DHT22;68291;49.602;8.722;2023-06-22T15:35:23;33.90;90.50
78904;DHT22;68291;49.602;8.722;2023-06-22T15:37:57;34.10;90.70
78904;DHT22;68291;49.602;8.722;2023-06-22T15:40:37;34.40;91.30
78904;DHT22;68291;49.602;8.722;2023-06-22T15:43:20;34.80;90.90
78904;DHT22;68291;49.602;8.722;2023-06-22T15:49:19;35.50;89.30
78904;DHT22;68291;49.602;8.722;2023-06-22T15:52:00;35.70;87.30
78904;DHT22;68291;49.602;8.722;2023-06-22T15:54:33;35.70;86.90
78904;DHT22;68291;49.602;8.722;2023-06-22T15:57:11;35.50;86.60
78904;DHT22;68291;49.602;8.722;2023-06-22T15:59:44;35.40;86.30
78904;DHT22;68291;49.602;8.722;2023-06-22T16:02:25;35.20;86.00
78904;DHT22;68291;49.602;8.722;2023-06-22T16:04:59;35.00;85.20
78904;DHT22;68291;49.602;8.722;2023-06-22T16:07:40;34.70;86.50
78904;DHT22;68291;49.602;8.722;2023-06-22T16:10:15;34.60;87.30
78904;DHT22;68291;49.602;8.722;2023-06-22T16:13:06;34.40;87.60
78904;DHT22;68291;49.602;8.722;2023-06-22T16:15:37;34.30;88.10
78904;DHT22;68291;49.602;8.722;2023-06-22T16:18:13;34.30;88.50
78904;DHT22;68291;49.602;8.722;2023-06-22T16:20:46;34.40;88.90
78904;DHT22;68291;49.602;8.722;2023-06-22T16:23:32;34.50;87.80
78904;DHT22;68291;49.602;8.722;2023-06-22T16:26:09;34.70;89.00
78904;DHT22;68291;49.602;8.722;2023-06-22T16:28:40;34.90;87.90
78904;DHT22;68291;49.602;8.722;2023-06-22T16:31:18;35.00;87.50
78904;DHT22;68291;49.602;8.722;2023-06-22T16:34:06;35.00;87.20
78904;DHT22;68291;49.602;8.722;2023-06-22T16:36:51;34.90;86.20
78904;DHT22;68291;49.602;8.722;2023-06-22T16:39:47;34.60;84.40
78904;DHT22;68291;49.602;8.722;2023-06-22T16:42:24;34.40;84.90
78904;DHT22;68291;49.602;8.722;2023-06-22T16:45:05;34.10;85.90
78904;DHT22;68291;49.602;8.722;2023-06-22T16:47:55;33.80;85.30
78904;DHT22;68291;49.602;8.722;2023-06-22T16:50:35;33.50;86.60
78904;DHT22;68291;49.602;8.722;2023-06-22T16:53:10;33.20;86.80
78904;DHT22;68291;49.602;8.722;2023-06-22T16:55:43;33.00;88.20
78904;DHT22;68291;49.602;8.722;2023-06-22T16:58:26;32.80;88.00
78904;DHT22;68291;49.602;8.722;2023-06-22T17:01:07;32.60;88.60
78904;DHT22;68291;49.602;8.722;2023-06-22T17:03:56;32.40;89.10
78904;DHT22;68291;49.602;8.722;2023-06-22T17:06:39;32.20;88.70
78904;DHT22;68291;49.602;8.722;2023-06-22T17:09:25;32.00;89.20
78904;DHT22;68291;49.602;8.722;2023-06-22T17:12:00;31.90;89.80
78904;DHT22;68291;49.602;8.722;2023-06-22T17:14:40;31.80;89.90
78904;DHT22;68291;49.602;8.722;2023-06-22T17:17:20;31.70;90.40
78904;DHT22;68291;49.602;8.722;2023-06-22T17:19:57;31.60;90.40
78904;DHT22;68291;49.602;8.722;2023-06-22T17:22:53;31.50;90.40
78904;DHT22;68291;49.602;8.722;2023-06-22T17:25:30;31.40;89.50